createdAt,value
2018-08-04T10:14:47.123Z,3.87
2018-08-04T10:17:15.443Z,2.03
2018-08-04T10:19:43.553Z,1.80
2018-08-04T10:22:12.432Z,2.10
2018-08-04T10:24:40.561Z,1.73
2018-08-04T10:27:08.787Z,2.00
2018-08-04T10:29:37.499Z,1.33
2018-08-04T10:32:06.074Z,1.83
2018-08-04T10:34:34.159Z,2.17
2018-08-04T10:37:02.267Z,2.30
2018-08-04T10:39:31.507Z,1.77
2018-08-04T10:41:59.686Z,2.60
2018-08-04T10:44:27.890Z,1.57
2018-08-04T10:46:56.698Z,1.53
2018-08-04T10:49:25.709Z,1.57
2018-08-04T10:51:53.866Z,1.80
2018-08-04T10:54:22.008Z,1.80
2018-08-04T10:56:51.486Z,2.63
2018-08-04T10:59:19.591Z,1.23
2018-08-04T11:01:47.830Z,1.73
2018-08-04T11:04:15.986Z,2.27
2018-08-04T11:06:44.179Z,2.23
2018-08-04T11:09:12.397Z,3.83
2018-08-04T11:11:40.530Z,3.60
2018-08-04T11:14:09.077Z,1.93
2018-08-04T11:16:38.044Z,2.47
2018-08-04T11:19:06.495Z,4.00
2018-08-04T11:21:34.967Z,1.63
2018-08-04T11:24:03.105Z,2.13
2018-08-04T11:26:31.301Z,4.17
2018-08-04T11:28:59.390Z,3.73
2018-08-04T11:31:27.518Z,2.87
2018-08-04T11:33:55.674Z,5.63
2018-08-04T11:36:23.842Z,2.07
2018-08-04T11:38:51.934Z,4.10
2018-08-04T11:41:20.050Z,1.33
2018-08-04T11:43:48.161Z,2.83
2018-08-04T11:46:18.523Z,3.20
2018-08-04T11:48:46.653Z,2.20
2018-08-04T11:51:14.814Z,2.57
2018-08-04T11:53:42.862Z,3.13
2018-08-04T11:56:11.114Z,2.40
2018-08-04T11:58:39.238Z,1.30
2018-08-04T12:01:07.369Z,2.03
2018-08-04T12:03:35.514Z,5.93
2018-08-04T12:06:03.626Z,1.53
2018-08-04T12:08:31.731Z,1.53
2018-08-04T12:10:59.844Z,5.23
2018-08-04T12:13:28.050Z,1.70
2018-08-04T12:15:57.587Z,2.67
2018-08-04T12:18:25.674Z,2.10
2018-08-04T12:20:53.923Z,1.20
2018-08-04T12:23:22.088Z,2.27
2018-08-04T12:25:50.227Z,2.53
2018-08-04T12:28:18.476Z,3.63
2018-08-04T12:30:46.669Z,2.47
2018-08-04T12:33:14.746Z,1.87
2018-08-04T12:35:42.844Z,1.57
2018-08-04T12:38:10.972Z,1.20
2018-08-04T12:40:39.245Z,2.07
2018-08-04T12:43:08.321Z,2.50
2018-08-04T12:45:36.463Z,2.23
2018-08-04T12:48:04.581Z,3.50
2018-08-04T12:50:32.671Z,1.90
2018-08-04T12:53:01.196Z,1.87
2018-08-04T12:55:29.368Z,2.90
2018-08-04T12:57:57.522Z,1.87
2018-08-04T13:00:25.622Z,1.97
2018-08-04T13:02:53.730Z,1.53
2018-08-04T13:05:21.873Z,6.37
2018-08-04T13:07:50.299Z,2.57
2018-08-04T13:10:18.434Z,2.03
2018-08-04T13:12:46.555Z,3.43
2018-08-04T13:15:14.721Z,2.77
2018-08-04T13:17:42.871Z,3.00
2018-08-04T13:20:10.955Z,2.83
2018-08-04T13:22:39.071Z,3.10
2018-08-04T13:25:07.182Z,3.57
2018-08-04T13:27:35.247Z,1.87
2018-08-04T13:30:03.351Z,1.67
2018-08-04T13:32:31.492Z,1.50
2018-08-04T13:34:59.571Z,7.50
2018-08-04T13:37:28.027Z,1.90
2018-08-04T13:39:56.149Z,1.93
2018-08-04T13:42:24.274Z,2.00
2018-08-04T13:44:52.359Z,2.93
2018-08-04T13:47:20.431Z,1.83
2018-08-04T13:49:48.525Z,2.87
2018-08-04T13:52:16.674Z,2.10
2018-08-04T13:54:44.774Z,2.13
2018-08-04T13:57:12.928Z,1.63
2018-08-04T13:59:41.077Z,2.50
2018-08-04T14:02:09.211Z,2.23
2018-08-04T14:04:37.282Z,2.87
2018-08-04T14:07:05.697Z,2.23
2018-08-04T14:09:33.840Z,1.37
2018-08-04T14:12:01.960Z,1.20
2018-08-04T14:14:30.068Z,3.70
2018-08-04T14:16:58.155Z,1.47
2018-08-04T14:19:26.255Z,1.03
2018-08-04T14:21:54.342Z,1.13
2018-08-04T14:24:22.522Z,1.37
2018-08-04T14:26:50.626Z,2.33
2018-08-04T14:29:18.817Z,1.13
2018-08-04T14:31:46.870Z,1.53
2018-08-04T14:34:15.010Z,1.53
2018-08-04T14:36:43.098Z,1.43
2018-08-04T14:39:12.707Z,1.80
2018-08-04T14:41:42.298Z,5.07
2018-08-04T14:44:10.485Z,3.83
2018-08-04T14:46:38.639Z,4.53
2018-08-04T14:49:06.743Z,4.87
2018-08-04T14:51:34.842Z,4.80
2018-08-04T14:54:02.992Z,6.80
2018-08-04T14:56:31.119Z,8.23
2018-08-04T14:58:59.203Z,4.90
2018-08-04T15:01:27.321Z,7.27
2018-08-04T15:03:56.406Z,7.73
2018-08-04T15:06:24.508Z,7.40
2018-08-04T15:08:52.616Z,7.93
2018-08-04T15:11:20.751Z,7.60
2018-08-04T15:13:48.859Z,8.53
2018-08-04T15:16:16.930Z,9.33
2018-08-04T15:18:45.119Z,8.13
2018-08-04T15:21:13.230Z,7.80
2018-08-04T15:23:41.405Z,9.23
2018-08-04T15:26:09.521Z,6.53
2018-08-04T15:28:37.670Z,5.50
2018-08-04T15:31:05.782Z,5.60
2018-08-04T15:33:33.955Z,6.17
2018-08-04T15:36:02.034Z,6.37
2018-08-04T15:38:30.102Z,5.53
2018-08-04T15:40:58.174Z,4.83
2018-08-04T15:43:26.603Z,7.00
2018-08-04T15:45:54.684Z,3.20
2018-08-04T15:48:22.763Z,5.67
2018-08-04T15:50:50.898Z,5.13
2018-08-04T15:53:19.103Z,4.83
2018-08-04T15:55:47.554Z,9.17
2018-08-04T15:58:15.642Z,5.40
2018-08-04T16:00:43.754Z,5.70
2018-08-04T16:03:11.853Z,2.77
2018-08-04T16:05:39.995Z,5.47
2018-08-04T16:08:08.202Z,5.77
2018-08-04T16:10:36.314Z,7.00
2018-08-04T16:13:04.410Z,3.80
2018-08-04T16:15:33.147Z,5.47
2018-08-04T16:18:01.770Z,5.17
2018-08-04T16:20:29.915Z,8.93
2018-08-04T16:22:58.020Z,4.27
2018-08-04T16:25:26.097Z,6.97
2018-08-04T16:27:54.243Z,5.67
2018-08-04T16:30:22.335Z,6.07
2018-08-04T16:32:50.543Z,4.53
2018-08-04T16:35:18.707Z,4.20
2018-08-04T16:37:46.912Z,5.53
2018-08-04T16:40:15.067Z,4.77
2018-08-04T16:42:43.164Z,8.30
2018-08-04T16:45:11.306Z,7.77
2018-08-04T16:47:39.476Z,4.37
2018-08-04T16:50:07.614Z,7.97
2018-08-04T16:52:35.765Z,5.10
2018-08-04T16:55:03.913Z,6.23
2018-08-04T16:57:32.008Z,8.07
2018-08-04T17:00:00.376Z,6.53
2018-08-04T17:02:28.568Z,10.57
2018-08-04T17:04:56.733Z,8.17
2018-08-04T17:07:24.942Z,6.00
2018-08-04T17:09:53.389Z,6.33
2018-08-04T17:12:21.532Z,6.90
2018-08-04T17:14:49.649Z,5.87
2018-08-04T17:17:17.717Z,8.37
2018-08-04T17:19:45.863Z,10.47
2018-08-04T17:22:14.009Z,7.70
2018-08-04T17:24:42.083Z,9.97
2018-08-04T17:27:10.172Z,13.10
2018-08-04T17:29:38.297Z,14.67
2018-08-04T17:32:06.407Z,8.17
2018-08-04T17:34:34.562Z,5.77
2018-08-04T17:37:02.683Z,10.07
2018-08-04T17:39:30.826Z,6.37
2018-08-04T17:41:58.922Z,9.23
2018-08-04T17:44:27.050Z,9.87
2018-08-04T17:46:55.100Z,6.43
2018-08-04T17:49:23.248Z,5.53
2018-08-04T17:51:51.329Z,8.97
2018-08-04T17:54:19.412Z,8.30
2018-08-04T17:56:47.888Z,8.00
2018-08-04T17:59:16.005Z,5.53
2018-08-04T18:01:44.101Z,8.17
2018-08-04T18:04:12.142Z,7.87
2018-08-04T18:06:40.244Z,8.27
2018-08-04T18:09:08.820Z,7.50
2018-08-04T18:11:37.514Z,10.87
2018-08-04T18:14:05.724Z,7.37
2018-08-04T18:16:33.837Z,9.43
2018-08-04T18:19:01.985Z,9.93
2018-08-04T18:21:30.411Z,7.80
2018-08-04T18:23:58.590Z,7.63
2018-08-04T18:26:26.750Z,5.93
2018-08-04T18:28:54.862Z,7.13
2018-08-04T18:31:22.931Z,5.67
2018-08-04T18:33:51.057Z,10.23
2018-08-04T18:36:19.137Z,7.80
2018-08-04T18:38:47.242Z,4.47
2018-08-04T18:41:15.477Z,9.07
2018-08-04T18:43:43.581Z,7.30
2018-08-04T18:46:11.751Z,5.93
2018-08-04T18:48:39.949Z,5.43
2018-08-04T18:51:08.093Z,8.63
2018-08-04T18:53:36.334Z,7.70
2018-08-04T18:56:04.734Z,7.63
2018-08-04T18:58:32.826Z,5.60
2018-08-04T19:01:00.978Z,8.33
2018-08-04T19:03:29.073Z,10.90
2018-08-04T19:05:57.243Z,6.40
2018-08-04T19:08:25.327Z,8.67
2018-08-04T19:10:53.526Z,10.30
2018-08-04T19:13:22.719Z,8.53
2018-08-04T19:15:50.851Z,10.70
2018-08-04T19:18:19.534Z,10.60
2018-08-04T19:20:47.627Z,10.53
2018-08-04T19:23:15.826Z,8.83
2018-08-04T19:25:43.909Z,9.37
2018-08-04T19:28:12.047Z,9.33
2018-08-04T19:30:40.728Z,7.13
2018-08-04T19:33:08.902Z,5.80
2018-08-04T19:35:37.050Z,5.90
2018-08-04T19:38:05.129Z,7.63
2018-08-04T19:40:33.233Z,6.87
2018-08-04T19:43:01.332Z,4.30
2018-08-04T19:48:12.307Z,6.87
2018-08-04T19:50:40.482Z,6.00
2018-08-04T19:53:08.646Z,7.23
2018-08-04T19:55:36.845Z,7.90
2018-08-04T19:58:05.004Z,3.57
2018-08-04T20:00:33.140Z,5.23
2018-08-04T20:03:01.209Z,10.10
2018-08-04T20:05:29.304Z,7.50
2018-08-04T20:07:57.481Z,7.70
2018-08-04T20:10:25.555Z,6.53
2018-08-04T20:12:53.690Z,5.77
2018-08-04T20:15:21.862Z,7.10
2018-08-04T20:17:49.959Z,7.67
2018-08-04T20:20:18.034Z,4.67
2018-08-04T20:22:46.099Z,6.33
